Time;durP1;ratioP1;P1;durP2;ratioP2;P2;SDS_P1;SDS_P2;PMS_P1;PMS_P2;Temp;Humidity;BMP_temperature;BMP_pressure;BME280_temperature;BME280_humidity;BME280_pressure;Samples;Min_cycle;Max_cycle;Signal;HPM_P1;HPM_P2
2021/03/14 00:00:58;;;;;;;;;;;8.50;70.10;;;;;;5014168;28;19921;-77
2021/03/14 00:03:26;;;;;;;;;;;8.50;70.50;;;;;;5013488;28;19992;-77
2021/03/14 00:05:53;;;;;;;;;;;8.50;70.20;;;;;;5013620;28;19928;-77
2021/03/14 00:08:20;;;;;;;;;;;8.50;69.90;;;;;;5009029;28;19940;-76
2021/03/14 00:10:47;;;;;;;;;;;8.40;69.80;;;;;;5013768;28;20383;-76
2021/03/14 00:13:15;;;;;;;;;;;8.40;69.40;;;;;;5005561;28;20362;-77
2021/03/14 00:15:41;;;;;;;;;;;8.40;69.80;;;;;;5012366;28;19929;-78
2021/03/14 00:18:08;;;;;;;;;;;8.50;69.90;;;;;;5013706;28;20711;-78
2021/03/14 00:20:35;;;;;;;;;;;8.60;70.00;;;;;;5014203;28;19925;-77
2021/03/14 00:23:01;;;;;;;;;;;8.60;70.10;;;;;;5010717;28;19921;-77
2021/03/14 00:25:28;;;;;;;;;;;8.70;70.10;;;;;;5013336;28;20393;-77
2021/03/14 00:27:54;;;;;;;;;;;8.70;69.10;;;;;;5013463;28;19921;-77
2021/03/14 00:30:21;;;;;;;;;;;8.70;69.50;;;;;;5013058;28;19922;-77
2021/03/14 00:32:47;;;;;;;;;;;8.70;69.60;;;;;;5013499;28;20370;-77
2021/03/14 00:35:15;;;;;;;;;;;8.70;69.50;;;;;;5013166;28;19936;-77
2021/03/14 00:37:42;;;;;;;;;;;8.70;70.60;;;;;;5012898;28;19921;-76
2021/03/14 00:40:09;;;;;;;;;;;8.60;70.00;;;;;;5013526;28;19922;-76
2021/03/14 00:42:35;;;;;;;;;;;8.40;69.70;;;;;;5013283;28;19930;-77
2021/03/14 00:45:02;;;;;;;;;;;8.40;70.30;;;;;;5013141;28;19922;-77
2021/03/14 00:47:28;;;;;;;;;;;8.30;70.10;;;;;;5013094;28;19925;-77
2021/03/14 00:49:54;;;;;;;;;;;8.20;70.60;;;;;;5010743;28;19928;-77
2021/03/14 00:52:20;;;;;;;;;;;8.10;71.50;;;;;;5012434;28;19929;-77
2021/03/14 00:54:47;;;;;;;;;;;8.10;72.20;;;;;;5013210;28;19949;-77
2021/03/14 00:57:14;;;;;;;;;;;8.10;72.80;;;;;;5012980;28;19972;-77
2021/03/14 00:59:40;;;;;;;;;;;8.10;72.50;;;;;;5011697;28;19975;-76
2021/03/14 01:02:06;;;;;;;;;;;8.20;72.50;;;;;;5013049;28;19937;-77
2021/03/14 01:04:33;;;;;;;;;;;8.10;72.50;;;;;;5012613;28;20012;-77
2021/03/14 01:06:59;;;;;;;;;;;8.10;72.40;;;;;;5012270;28;19928;-77
2021/03/14 01:09:25;;;;;;;;;;;8.10;72.40;;;;;;5013108;28;20321;-77
2021/03/14 01:11:52;;;;;;;;;;;8.10;72.70;;;;;;5012432;28;19968;-76
2021/03/14 01:14:19;;;;;;;;;;;8.00;72.60;;;;;;5012442;28;19925;-76
2021/03/14 01:16:45;;;;;;;;;;;8.00;73.10;;;;;;5010269;28;20015;-76
2021/03/14 01:19:11;;;;;;;;;;;8.00;72.50;;;;;;5012441;28;19921;-77
2021/03/14 01:21:37;;;;;;;;;;;8.00;72.30;;;;;;5012407;28;20457;-76
2021/03/14 01:24:04;;;;;;;;;;;8.00;72.20;;;;;;5012788;28;19932;-77
2021/03/14 01:26:30;;;;;;;;;;;8.00;72.20;;;;;;5012207;28;19921;-77
2021/03/14 01:28:58;;;;;;;;;;;8.00;71.90;;;;;;5013047;28;19921;-76
2021/03/14 01:31:24;;;;;;;;;;;8.00;72.30;;;;;;5011901;28;19929;-77
2021/03/14 01:33:50;;;;;;;;;;;8.00;72.10;;;;;;5012426;28;19926;-77
2021/03/14 01:36:17;;;;;;;;;;;8.10;72.20;;;;;;5012503;28;20375;-77
2021/03/14 01:38:43;;;;;;;;;;;8.10;72.00;;;;;;5011039;28;19929;-77
2021/03/14 01:41:09;;;;;;;;;;;8.10;72.20;;;;;;5012315;28;19930;-77
2021/03/14 01:43:36;;;;;;;;;;;8.20;72.30;;;;;;5011886;28;19922;-77
2021/03/14 01:46:04;;;;;;;;;;;8.20;72.10;;;;;;5012050;28;19972;-78
2021/03/14 01:48:32;;;;;;;;;;;8.20;71.70;;;;;;5011446;28;20127;-78
2021/03/14 01:50:58;;;;;;;;;;;8.30;71.60;;;;;;5012521;28;19984;-79
2021/03/14 01:53:25;;;;;;;;;;;8.30;71.20;;;;;;5011988;28;20279;-77
2021/03/14 01:55:51;;;;;;;;;;;8.20;71.30;;;;;;5012244;28;19929;-77
2021/03/14 01:58:18;;;;;;;;;;;8.20;71.90;;;;;;5011963;28;20398;-78
2021/03/14 02:00:44;;;;;;;;;;;8.20;71.60;;;;;;5011857;28;19925;-77
2021/03/14 02:03:12;;;;;;;;;;;8.20;71.70;;;;;;5010746;28;19925;-77
2021/03/14 02:05:38;;;;;;;;;;;8.20;71.70;;;;;;5012157;28;19983;-78
2021/03/14 02:08:05;;;;;;;;;;;8.20;71.00;;;;;;5010461;28;19921;-79
2021/03/14 02:10:33;;;;;;;;;;;8.10;71.30;;;;;;5012072;28;19984;-78
2021/03/14 02:13:01;;;;;;;;;;;8.10;71.10;;;;;;5011915;28;19922;-78
2021/03/14 02:15:28;;;;;;;;;;;8.10;70.90;;;;;;5011948;28;19925;-78
2021/03/14 02:17:54;;;;;;;;;;;8.20;71.10;;;;;;5011687;28;20274;-78
2021/03/14 02:20:24;;;;;;;;;;;8.10;70.60;;;;;;5011009;28;19921;-77
2021/03/14 02:22:54;;;;;;;;;;;8.10;71.10;;;;;;5012062;28;19922;-77
2021/03/14 02:25:22;;;;;;;;;;;8.10;71.10;;;;;;5011817;28;19921;-77
2021/03/14 02:27:50;;;;;;;;;;;8.10;71.10;;;;;;5011782;28;19951;-76
2021/03/14 02:30:18;;;;;;;;;;;8.00;70.70;;;;;;5011460;28;19922;-77
2021/03/14 02:32:45;;;;;;;;;;;8.00;70.80;;;;;;5011751;28;19921;-76
2021/03/14 02:35:11;;;;;;;;;;;7.90;70.60;;;;;;5009726;28;19921;-77
2021/03/14 02:37:38;;;;;;;;;;;7.90;71.10;;;;;;5012565;28;19921;-77
2021/03/14 02:40:06;;;;;;;;;;;7.90;70.90;;;;;;5015073;28;19944;-76
2021/03/14 02:42:33;;;;;;;;;;;7.90;71.10;;;;;;5015454;28;19921;-77
2021/03/14 02:45:00;;;;;;;;;;;7.90;71.60;;;;;;5014065;28;19926;-76
2021/03/14 02:47:27;;;;;;;;;;;7.90;71.10;;;;;;5015234;28;20259;-77
2021/03/14 02:49:54;;;;;;;;;;;7.90;71.00;;;;;;5014740;28;19928;-77
2021/03/14 02:52:21;;;;;;;;;;;7.90;70.60;;;;;;5015021;28;20187;-77
2021/03/14 02:54:47;;;;;;;;;;;7.90;71.20;;;;;;5015057;28;19988;-77
2021/03/14 02:57:14;;;;;;;;;;;7.90;71.20;;;;;;5014679;28;20278;-77
2021/03/14 02:59:40;;;;;;;;;;;8.00;71.00;;;;;;5014960;28;20382;-76
2021/03/14 03:02:08;;;;;;;;;;;7.90;70.90;;;;;;5012981;28;19921;-77
2021/03/14 03:04:34;;;;;;;;;;;8.00;70.90;;;;;;5014585;28;19921;-77
2021/03/14 03:07:01;;;;;;;;;;;8.00;71.10;;;;;;5012769;28;19944;-77
2021/03/14 03:09:28;;;;;;;;;;;8.00;71.40;;;;;;5005581;28;19921;-77
2021/03/14 03:11:56;;;;;;;;;;;8.00;71.40;;;;;;5013150;28;19921;-78
2021/03/14 03:14:24;;;;;;;;;;;8.00;70.90;;;;;;5014475;28;19933;-77
2021/03/14 03:16:52;;;;;;;;;;;7.90;71.20;;;;;;5014269;28;19929;-77
2021/03/14 03:19:20;;;;;;;;;;;7.90;71.30;;;;;;5014393;28;19922;-76
2021/03/14 03:21:47;;;;;;;;;;;7.90;71.70;;;;;;5009516;28;19952;-77
2021/03/14 03:24:13;;;;;;;;;;;7.80;71.60;;;;;;5015027;28;19976;-76
2021/03/14 03:26:41;;;;;;;;;;;7.90;72.10;;;;;;5014694;28;19925;-77
2021/03/14 03:29:07;;;;;;;;;;;7.80;71.80;;;;;;5012688;28;19922;-77
2021/03/14 03:31:34;;;;;;;;;;;7.80;71.90;;;;;;5015246;28;19921;-77
2021/03/14 03:34:00;;;;;;;;;;;7.80;71.90;;;;;;5014267;28;19932;-77
2021/03/14 03:36:27;;;;;;;;;;;7.80;72.00;;;;;;5014562;28;19921;-77
2021/03/14 03:38:53;;;;;;;;;;;7.80;72.10;;;;;;5014504;28;19921;-77
2021/03/14 03:41:20;;;;;;;;;;;7.80;72.10;;;;;;5014564;28;19925;-77
2021/03/14 03:43:47;;;;;;;;;;;7.80;72.10;;;;;;5014171;28;19921;-77
2021/03/14 03:46:14;;;;;;;;;;;7.80;72.10;;;;;;5013469;28;19929;-77
2021/03/14 03:48:42;;;;;;;;;;;7.80;71.80;;;;;;5014583;28;19952;-77
2021/03/14 03:51:08;;;;;;;;;;;7.80;71.80;;;;;;5013494;28;19925;-78
2021/03/14 03:53:37;;;;;;;;;;;7.80;71.60;;;;;;5014508;28;19921;-77
2021/03/14 03:56:04;;;;;;;;;;;7.80;71.70;;;;;;5012126;28;19925;-77
2021/03/14 03:58:31;;;;;;;;;;;7.90;72.10;;;;;;5013963;28;19933;-77
2021/03/14 04:00:58;;;;;;;;;;;7.90;71.80;;;;;;5014151;28;20289;-77
2021/03/14 04:03:24;;;;;;;;;;;7.90;71.80;;;;;;5013496;28;19929;-77
2021/03/14 04:05:55;;;;;;;;;;;7.90;71.70;;;;;;5013840;28;19929;-77
2021/03/14 04:08:22;;;;;;;;;;;7.90;71.80;;;;;;5014381;28;20377;-77
2021/03/14 04:10:49;;;;;;;;;;;7.80;71.90;;;;;;5014213;28;19921;-77
2021/03/14 04:13:16;;;;;;;;;;;7.80;71.60;;;;;;4996748;28;19968;-77
2021/03/14 04:15:42;;;;;;;;;;;7.80;71.70;;;;;;5012289;28;19921;-77
2021/03/14 04:18:09;;;;;;;;;;;7.80;71.90;;;;;;5014226;28;19921;-77
2021/03/14 04:20:37;;;;;;;;;;;7.70;71.80;;;;;;5012967;28;19925;-77
2021/03/14 04:23:06;;;;;;;;;;;7.70;71.80;;;;;;5012530;28;19976;-77
2021/03/14 04:25:33;;;;;;;;;;;7.70;71.60;;;;;;5013672;28;19936;-77
2021/03/14 04:28:02;;;;;;;;;;;7.70;71.90;;;;;;5013941;28;20385;-77
2021/03/14 04:30:30;;;;;;;;;;;7.70;71.80;;;;;;5012370;28;19925;-77
2021/03/14 04:32:57;;;;;;;;;;;7.70;72.10;;;;;;5012977;28;19921;-77
2021/03/14 04:35:23;;;;;;;;;;;7.70;72.30;;;;;;5013035;28;19933;-76
2021/03/14 04:37:50;;;;;;;;;;;7.70;71.80;;;;;;5014033;28;19921;-77
2021/03/14 04:40:17;;;;;;;;;;;7.70;71.80;;;;;;5013327;28;19921;-77
2021/03/14 04:42:45;;;;;;;;;;;7.70;72.30;;;;;;5013691;28;19921;-77
2021/03/14 04:45:12;;;;;;;;;;;7.70;72.30;;;;;;5013094;28;19926;-76
2021/03/14 04:47:42;;;;;;;;;;;7.70;72.20;;;;;;5011569;28;19987;-76
2021/03/14 04:50:10;;;;;;;;;;;7.70;72.50;;;;;;5012197;28;19922;-77
2021/03/14 04:52:36;;;;;;;;;;;7.70;72.30;;;;;;5012811;28;19921;-76
2021/03/14 04:55:03;;;;;;;;;;;7.70;71.50;;;;;;5011981;28;19921;-76
2021/03/14 04:57:30;;;;;;;;;;;7.60;71.90;;;;;;5012924;28;19929;-76
2021/03/14 04:59:56;;;;;;;;;;;7.60;72.10;;;;;;5013377;28;19968;-76
2021/03/14 05:02:24;;;;;;;;;;;7.50;72.00;;;;;;5010954;28;19922;-76
2021/03/14 05:04:53;;;;;;;;;;;7.50;72.40;;;;;;5012577;28;19926;-76
2021/03/14 05:07:20;;;;;;;;;;;7.50;72.30;;;;;;5012362;28;19949;-76
2021/03/14 05:09:47;;;;;;;;;;;7.40;72.10;;;;;;5012768;28;19921;-77
2021/03/14 05:12:14;;;;;;;;;;;7.40;72.30;;;;;;5011871;28;19929;-76
2021/03/14 05:14:40;;;;;;;;;;;7.40;72.50;;;;;;5009070;28;19921;-77
2021/03/14 05:17:06;;;;;;;;;;;7.40;72.50;;;;;;5011425;28;19929;-76
2021/03/14 05:19:34;;;;;;;;;;;7.40;72.30;;;;;;5012553;28;19922;-77
2021/03/14 05:22:00;;;;;;;;;;;7.50;72.10;;;;;;5012050;28;19921;-77
2021/03/14 05:24:27;;;;;;;;;;;7.50;71.90;;;;;;5012479;28;19979;-77
2021/03/14 05:26:55;;;;;;;;;;;7.50;71.90;;;;;;5013202;28;19925;-77
2021/03/14 05:29:22;;;;;;;;;;;7.40;71.60;;;;;;5012943;28;19929;-77
2021/03/14 05:31:49;;;;;;;;;;;7.40;71.90;;;;;;5012523;28;19922;-77
2021/03/14 05:34:16;;;;;;;;;;;7.40;72.10;;;;;;5011995;28;19921;-79
2021/03/14 05:36:43;;;;;;;;;;;7.40;71.50;;;;;;5012846;28;19925;-78
2021/03/14 05:39:10;;;;;;;;;;;7.30;71.00;;;;;;5012914;28;19921;-77
2021/03/14 05:41:36;;;;;;;;;;;7.30;71.20;;;;;;5011071;28;20334;-77
2021/03/14 05:44:03;;;;;;;;;;;7.30;70.90;;;;;;5011995;28;19940;-77
2021/03/14 05:46:30;;;;;;;;;;;7.20;71.00;;;;;;5012298;28;19921;-78
2021/03/14 05:48:56;;;;;;;;;;;7.20;71.30;;;;;;5012648;28;20282;-77
2021/03/14 05:51:24;;;;;;;;;;;7.20;71.10;;;;;;5012173;28;20388;-77
2021/03/14 05:53:55;;;;;;;;;;;7.20;71.50;;;;;;5012636;28;19921;-78
2021/03/14 05:56:22;;;;;;;;;;;7.20;70.70;;;;;;5012610;28;19929;-77
2021/03/14 05:58:49;;;;;;;;;;;7.20;70.90;;;;;;5012015;28;19921;-77
2021/03/14 06:01:17;;;;;;;;;;;7.20;71.00;;;;;;5012521;28;19921;-78
2021/03/14 06:03:44;;;;;;;;;;;7.20;71.20;;;;;;5012492;28;19976;-78
2021/03/14 06:06:11;;;;;;;;;;;7.30;71.70;;;;;;5012099;28;19925;-77
2021/03/14 06:08:38;;;;;;;;;;;7.40;71.80;;;;;;5010534;28;19975;-78
2021/03/14 06:11:06;;;;;;;;;;;7.50;71.10;;;;;;5011078;28;19929;-77
2021/03/14 06:13:32;;;;;;;;;;;7.50;71.00;;;;;;5011432;28;19922;-78
2021/03/14 06:15:58;;;;;;;;;;;7.50;70.80;;;;;;5011344;28;19921;-78
2021/03/14 06:18:25;;;;;;;;;;;7.60;70.80;;;;;;5016292;28;19925;-78
2021/03/14 06:20:51;;;;;;;;;;;7.60;70.80;;;;;;5015024;28;20305;-77
2021/03/14 06:23:19;;;;;;;;;;;7.60;70.50;;;;;;5015962;28;19922;-78
2021/03/14 06:25:45;;;;;;;;;;;7.60;70.50;;;;;;5015574;28;20302;-78
2021/03/14 06:28:13;;;;;;;;;;;7.60;70.70;;;;;;5015457;28;19929;-78
2021/03/14 06:30:40;;;;;;;;;;;7.60;70.60;;;;;;5014864;28;19921;-78
2021/03/14 06:33:07;;;;;;;;;;;7.60;70.70;;;;;;5015911;28;19937;-79
2021/03/14 06:35:40;;;;;;;;;;;7.60;70.80;;;;;;5008208;28;20358;-78
2021/03/14 06:38:16;;;;;;;;;;;7.60;70.00;;;;;;4996546;28;19921;-76
2021/03/14 06:40:43;;;;;;;;;;;7.70;70.20;;;;;;5015292;28;20384;-76
2021/03/14 06:43:10;;;;;;;;;;;7.70;70.20;;;;;;5015334;28;20328;-79
2021/03/14 06:45:39;;;;;;;;;;;7.80;70.50;;;;;;5015289;28;19921;-77
2021/03/14 06:48:06;;;;;;;;;;;7.90;70.40;;;;;;5014549;28;20012;-77
2021/03/14 06:50:39;;;;;;;;;;;7.90;70.10;;;;;;5015263;28;19944;-80
2021/03/14 06:53:06;;;;;;;;;;;7.90;70.10;;;;;;5015897;28;20293;-81
2021/03/14 06:55:33;;;;;;;;;;;8.00;69.90;;;;;;5014651;28;19928;-81
2021/03/14 06:58:18;;;;;;;;;;;8.00;69.60;;;;;;5015482;28;19921;-80
2021/03/14 07:01:02;;;;;;;;;;;8.00;69.10;;;;;;5014670;28;19929;-78
2021/03/14 07:03:29;;;;;;;;;;;8.00;69.20;;;;;;5015867;28;20331;-80
2021/03/14 07:06:12;;;;;;;;;;;8.10;68.90;;;;;;5014734;28;19929;-80
2021/03/14 07:08:39;;;;;;;;;;;8.10;68.90;;;;;;5004898;28;19921;-79
2021/03/14 07:11:05;;;;;;;;;;;8.10;69.10;;;;;;5015528;28;19928;-81
2021/03/14 07:13:32;;;;;;;;;;;8.20;68.90;;;;;;5011742;28;19921;-80
2021/03/14 07:15:59;;;;;;;;;;;8.20;68.50;;;;;;5013580;28;19921;-79
2021/03/14 07:18:26;;;;;;;;;;;8.20;68.10;;;;;;5014702;28;20354;-80
2021/03/14 07:20:52;;;;;;;;;;;8.20;68.00;;;;;;5014374;28;19922;-80
2021/03/14 07:23:31;;;;;;;;;;;8.40;68.20;;;;;;5015123;28;19928;-78
2021/03/14 07:25:57;;;;;;;;;;;8.60;67.10;;;;;;5015119;28;20016;-81
2021/03/14 07:28:24;;;;;;;;;;;8.80;66.60;;;;;;5013483;28;19921;-77
2021/03/14 07:30:51;;;;;;;;;;;9.10;66.20;;;;;;5014407;28;19925;-78
2021/03/14 07:33:19;;;;;;;;;;;9.20;64.50;;;;;;5014582;28;19933;-80
2021/03/14 07:35:46;;;;;;;;;;;9.40;64.70;;;;;;5014724;28;19925;-79
2021/03/14 07:38:13;;;;;;;;;;;9.70;64.40;;;;;;5015293;28;19929;-79
2021/03/14 07:40:39;;;;;;;;;;;10.10;62.80;;;;;;5014838;28;19927;-77
2021/03/14 07:43:05;;;;;;;;;;;10.60;61.80;;;;;;5012844;28;19929;-81
2021/03/14 07:45:33;;;;;;;;;;;10.70;58.00;;;;;;5014109;28;19937;-80
2021/03/14 07:47:59;;;;;;;;;;;10.50;58.10;;;;;;5014377;28;19925;-77
2021/03/14 07:50:28;;;;;;;;;;;10.40;57.80;;;;;;5013226;28;19944;-78
2021/03/14 07:52:58;;;;;;;;;;;10.20;58.60;;;;;;4997025;28;19976;-78
2021/03/14 07:55:24;;;;;;;;;;;10.10;58.30;;;;;;5012322;28;20012;-76
2021/03/14 07:57:52;;;;;;;;;;;9.90;59.40;;;;;;5014164;28;19925;-78
2021/03/14 08:00:26;;;;;;;;;;;9.70;59.60;;;;;;5012133;28;19963;-76
2021/03/14 08:02:52;;;;;;;;;;;9.60;59.90;;;;;;5013916;28;19929;-77
2021/03/14 08:05:19;;;;;;;;;;;9.50;60.00;;;;;;5013912;28;19948;-76
2021/03/14 08:07:47;;;;;;;;;;;9.30;59.40;;;;;;5014078;28;19928;-76
2021/03/14 08:10:33;;;;;;;;;;;9.10;59.60;;;;;;5013762;28;19922;-77
2021/03/14 08:12:59;;;;;;;;;;;8.90;60.20;;;;;;5011196;28;19976;-80
2021/03/14 08:15:28;;;;;;;;;;;9.00;61.40;;;;;;5012522;28;19929;-81
2021/03/14 08:17:55;;;;;;;;;;;9.10;61.80;;;;;;5013955;28;19926;-78
2021/03/14 08:20:35;;;;;;;;;;;9.10;61.80;;;;;;5013455;28;19933;-79
2021/03/14 08:23:02;;;;;;;;;;;9.20;61.40;;;;;;5012288;28;19967;-80
2021/03/14 08:25:29;;;;;;;;;;;9.10;61.00;;;;;;5013297;28;19922;-81
2021/03/14 08:27:57;;;;;;;;;;;9.20;61.00;;;;;;5013251;28;19921;-82
2021/03/14 08:30:50;;;;;;;;;;;9.30;60.70;;;;;;5013239;28;19929;-78
2021/03/14 08:33:25;;;;;;;;;;;9.20;61.00;;;;;;4973273;28;19922;-77
2021/03/14 08:35:52;;;;;;;;;;;9.30;61.00;;;;;;5001554;28;19928;-77
2021/03/14 08:38:27;;;;;;;;;;;9.50;61.60;;;;;;5004800;28;19972;-77
2021/03/14 08:41:12;;;;;;;;;;;9.80;61.50;;;;;;5013501;28;19994;-77
2021/03/14 08:43:42;;;;;;;;;;;10.10;59.80;;;;;;5013146;28;19921;-78
2021/03/14 08:46:08;;;;;;;;;;;10.30;58.60;;;;;;5013120;28;19979;-77
2021/03/14 08:48:34;;;;;;;;;;;10.30;57.90;;;;;;5010502;28;19925;-77
2021/03/14 08:51:00;;;;;;;;;;;10.30;57.30;;;;;;5001440;28;19929;-77
2021/03/14 08:53:28;;;;;;;;;;;10.30;56.90;;;;;;5003921;28;19928;-76
2021/03/14 08:55:54;;;;;;;;;;;10.30;56.60;;;;;;5013700;28;19948;-77
2021/03/14 08:58:20;;;;;;;;;;;10.10;56.40;;;;;;5013316;28;19975;-76
2021/03/14 09:01:00;;;;;;;;;;;10.30;57.40;;;;;;5013222;28;20013;-76
2021/03/14 09:03:26;;;;;;;;;;;10.40;57.00;;;;;;5012581;28;20393;-77
2021/03/14 09:06:10;;;;;;;;;;;10.40;56.40;;;;;;5012464;28;19921;-77
2021/03/14 09:08:37;;;;;;;;;;;10.30;56.70;;;;;;5012841;28;20370;-78
2021/03/14 09:11:03;;;;;;;;;;;10.30;56.20;;;;;;5012306;28;19967;-76
2021/03/14 09:13:30;;;;;;;;;;;10.30;55.70;;;;;;5012783;28;19922;-77
2021/03/14 09:15:56;;;;;;;;;;;10.40;55.90;;;;;;5011109;28;20388;-77
2021/03/14 09:18:23;;;;;;;;;;;10.30;55.70;;;;;;5011750;28;19921;-77
2021/03/14 09:20:56;;;;;;;;;;;10.20;55.30;;;;;;5013090;28;20286;-76
2021/03/14 09:23:22;;;;;;;;;;;10.10;55.00;;;;;;5013056;28;20443;-77
2021/03/14 09:25:52;;;;;;;;;;;10.00;55.20;;;;;;5012589;28;19921;-76
2021/03/14 09:28:18;;;;;;;;;;;9.90;56.40;;;;;;5012856;28;19968;-77
2021/03/14 09:30:45;;;;;;;;;;;9.90;56.60;;;;;;5012215;28;19940;-76
2021/03/14 09:33:12;;;;;;;;;;;9.90;56.30;;;;;;5012679;28;19921;-77
2021/03/14 09:35:40;;;;;;;;;;;10.00;55.80;;;;;;5012306;28;19921;-76
2021/03/14 09:38:08;;;;;;;;;;;10.10;56.30;;;;;;5011707;28;20008;-75
2021/03/14 09:40:35;;;;;;;;;;;10.20;56.00;;;;;;5012451;28;20452;-77
2021/03/14 09:43:06;;;;;;;;;;;10.30;56.00;;;;;;5011147;28;19921;-76
2021/03/14 09:45:33;;;;;;;;;;;10.40;55.60;;;;;;5011140;28;19921;-76
2021/03/14 09:48:01;;;;;;;;;;;10.60;54.50;;;;;;5014537;28;19922;-76
2021/03/14 09:50:28;;;;;;;;;;;10.80;54.20;;;;;;5016304;28;19921;-76
2021/03/14 09:52:57;;;;;;;;;;;11.00;54.20;;;;;;5016576;28;19976;-77
2021/03/14 09:55:25;;;;;;;;;;;11.00;53.90;;;;;;5015578;28;19922;-76
2021/03/14 09:57:51;;;;;;;;;;;11.10;53.50;;;;;;5016903;28;19921;-79
2021/03/14 10:00:23;;;;;;;;;;;11.00;53.10;;;;;;5016155;28;19925;-80
2021/03/14 10:02:49;;;;;;;;;;;10.80;52.90;;;;;;5016060;28;20317;-79
2021/03/14 10:05:16;;;;;;;;;;;10.60;53.10;;;;;;5015839;28;20300;-79
2021/03/14 10:07:42;;;;;;;;;;;10.50;53.30;;;;;;5015664;28;19922;-80
2021/03/14 10:10:10;;;;;;;;;;;10.40;52.20;;;;;;5014270;28;19944;-78
2021/03/14 10:12:36;;;;;;;;;;;10.30;52.60;;;;;;5015069;28;20337;-79
2021/03/14 10:15:03;;;;;;;;;;;10.20;52.50;;;;;;5015955;28;19972;-78
2021/03/14 10:17:31;;;;;;;;;;;10.00;53.10;;;;;;5016219;28;19921;-84
2021/03/14 10:19:59;;;;;;;;;;;9.90;54.30;;;;;;5015226;28;19921;-82
2021/03/14 10:22:30;;;;;;;;;;;9.90;55.10;;;;;;5016224;28;20290;-83
2021/03/14 10:24:56;;;;;;;;;;;10.00;54.80;;;;;;5016108;28;19922;-84
2021/03/14 10:27:22;;;;;;;;;;;10.20;54.90;;;;;;5015905;28;19921;-84
2021/03/14 10:29:54;;;;;;;;;;;10.30;54.30;;;;;;5015847;28;19940;-84
2021/03/14 10:32:21;;;;;;;;;;;10.40;54.10;;;;;;5014494;28;19925;-84
2021/03/14 10:34:53;;;;;;;;;;;10.30;52.60;;;;;;5011807;28;19921;-82
2021/03/14 10:37:29;;;;;;;;;;;10.30;52.90;;;;;;5016346;28;19928;-83
2021/03/14 10:39:57;;;;;;;;;;;10.40;53.30;;;;;;5016554;28;19921;-84
2021/03/14 10:42:30;;;;;;;;;;;10.40;51.70;;;;;;5016252;28;19922;-85
2021/03/14 10:45:01;;;;;;;;;;;10.40;52.40;;;;;;5015504;28;20019;-86
2021/03/14 10:47:28;;;;;;;;;;;10.40;52.20;;;;;;5015186;28;19955;-84
2021/03/14 10:50:06;;;;;;;;;;;10.40;52.20;;;;;;5014622;28;20004;-84
2021/03/14 10:52:33;;;;;;;;;;;10.30;52.40;;;;;;5016045;28;19921;-84
2021/03/14 10:54:59;;;;;;;;;;;10.50;52.50;;;;;;5015693;28;19922;-82
2021/03/14 10:57:26;;;;;;;;;;;10.70;52.40;;;;;;5015445;28;19929;-83
2021/03/14 11:00:05;;;;;;;;;;;11.10;53.20;;;;;;5014660;28;19928;-84
2021/03/14 11:02:41;;;;;;;;;;;11.60;52.60;;;;;;5013226;28;19928;-82
2021/03/14 11:05:09;;;;;;;;;;;12.40;50.90;;;;;;5015655;28;19975;-83
2021/03/14 11:07:36;;;;;;;;;;;13.10;48.80;;;;;;5014819;28;20362;-84
2021/03/14 11:10:06;;;;;;;;;;;13.30;47.80;;;;;;5015529;28;20341;-83
2021/03/14 11:12:33;;;;;;;;;;;13.30;47.20;;;;;;5010730;28;19928;-82
2021/03/14 11:14:59;;;;;;;;;;;12.70;44.80;;;;;;5015626;28;19921;-82
2021/03/14 11:17:28;;;;;;;;;;;12.30;46.50;;;;;;5014139;28;19921;-85
2021/03/14 11:19:55;;;;;;;;;;;12.10;47.10;;;;;;5011263;28;20333;-81
2021/03/14 11:22:22;;;;;;;;;;;12.00;47.10;;;;;;5015717;28;20293;-79
2021/03/14 11:24:48;;;;;;;;;;;11.90;47.10;;;;;;5015396;28;19921;-81
2021/03/14 11:27:15;;;;;;;;;;;12.00;47.00;;;;;;5014760;28;19929;-83
2021/03/14 11:29:42;;;;;;;;;;;12.00;47.10;;;;;;5013580;28;19922;-81
2021/03/14 11:32:11;;;;;;;;;;;12.20;47.60;;;;;;5014007;28;19926;-82
2021/03/14 11:34:37;;;;;;;;;;;13.50;46.00;;;;;;5015652;28;19925;-82
2021/03/14 11:37:06;;;;;;;;;;;14.20;43.30;;;;;;5015190;28;19929;-83
2021/03/14 11:45:59;;;;;;;;;;;13.00;41.00;;;;;;4953920;28;20013;-86
2021/03/14 11:57:52;;;;;;;;;;;12.20;43.30;;;;;;4918916;28;19930;-84
2021/03/14 12:00:34;;;;;;;;;;;12.00;43.50;;;;;;4972885;28;19977;-84
2021/03/14 12:03:06;;;;;;;;;;;12.00;44.20;;;;;;4965764;28;19988;-83
2021/03/14 12:08:35;;;;;;;;;;;11.90;44.00;;;;;;4972364;28;19921;-77
2021/03/14 12:11:05;;;;;;;;;;;11.70;45.00;;;;;;5008822;28;19925;-76
2021/03/14 12:13:31;;;;;;;;;;;11.70;45.50;;;;;;5013034;28;19984;-78
2021/03/14 12:15:58;;;;;;;;;;;11.70;45.70;;;;;;5014100;28;19922;-78
2021/03/14 12:18:25;;;;;;;;;;;11.70;46.30;;;;;;5013882;28;19922;-78
2021/03/14 12:20:51;;;;;;;;;;;11.70;46.40;;;;;;5013044;28;19944;-76
2021/03/14 12:23:18;;;;;;;;;;;11.60;46.60;;;;;;5011740;28;19921;-77
2021/03/14 12:25:44;;;;;;;;;;;11.30;48.30;;;;;;5013106;28;19928;-77
2021/03/14 12:28:11;;;;;;;;;;;11.20;49.60;;;;;;5013550;28;19944;-77
2021/03/14 12:30:37;;;;;;;;;;;11.00;50.50;;;;;;5013069;28;20658;-77
2021/03/14 12:33:11;;;;;;;;;;;10.90;51.30;;;;;;5119600;27;19920;-77
2021/03/14 12:35:38;;;;;;;;;;;10.80;52.00;;;;;;5110811;28;19920;-77
2021/03/14 12:38:04;;;;;;;;;;;10.60;52.60;;;;;;5110867;28;19920;-80
2021/03/14 12:40:31;;;;;;;;;;;10.50;53.40;;;;;;5110016;28;19920;-79
2021/03/14 12:42:58;;;;;;;;;;;10.40;54.90;;;;;;5109898;28;20364;-80
2021/03/14 12:45:24;;;;;;;;;;;10.20;55.30;;;;;;5110380;28;20288;-78
2021/03/14 12:47:51;;;;;;;;;;;10.00;56.10;;;;;;5110334;28;20326;-77
2021/03/14 12:50:18;;;;;;;;;;;9.90;57.70;;;;;;5108611;28;19920;-77
2021/03/14 12:52:45;;;;;;;;;;;9.90;58.40;;;;;;5109734;28;19996;-76
2021/03/14 12:55:11;;;;;;;;;;;9.90;58.90;;;;;;5110046;28;19979;-76
2021/03/14 12:57:38;;;;;;;;;;;9.80;59.10;;;;;;5109433;28;19920;-76
2021/03/14 13:00:05;;;;;;;;;;;9.80;59.90;;;;;;5109656;28;19920;-76
2021/03/14 13:02:31;;;;;;;;;;;9.60;60.00;;;;;;5109938;28;19924;-76
2021/03/14 13:04:59;;;;;;;;;;;9.60;60.50;;;;;;5109982;28;19920;-77
2021/03/14 13:07:27;;;;;;;;;;;9.50;61.10;;;;;;5120705;28;20368;-77
2021/03/14 13:09:53;;;;;;;;;;;9.60;61.90;;;;;;5109804;28;20441;-77
2021/03/14 13:12:19;;;;;;;;;;;9.70;61.90;;;;;;5110200;28;19920;-76
2021/03/14 13:14:47;;;;;;;;;;;9.80;61.50;;;;;;5110172;28;19920;-78
2021/03/14 13:17:14;;;;;;;;;;;9.80;61.70;;;;;;5108660;28;19924;-76
2021/03/14 13:19:40;;;;;;;;;;;9.90;61.30;;;;;;5108867;28;19920;-76
2021/03/14 13:22:06;;;;;;;;;;;9.90;61.10;;;;;;5109451;28;19949;-78
2021/03/14 13:24:36;;;;;;;;;;;10.00;60.30;;;;;;5110040;28;19939;-76
2021/03/14 13:27:03;;;;;;;;;;;10.10;60.20;;;;;;5109641;28;19928;-77
2021/03/14 13:29:29;;;;;;;;;;;10.10;60.30;;;;;;5109469;28;19965;-77
2021/03/14 13:31:56;;;;;;;;;;;10.20;60.50;;;;;;5109187;28;19930;-76
2021/03/14 13:34:22;;;;;;;;;;;10.30;60.90;;;;;;5110146;28;19920;-77
2021/03/14 13:36:49;;;;;;;;;;;10.40;61.10;;;;;;5114346;28;19920;-77
2021/03/14 13:39:15;;;;;;;;;;;10.50;60.90;;;;;;5112025;28;19919;-78
2021/03/14 13:41:42;;;;;;;;;;;10.50;60.80;;;;;;5108955;28;19920;-75
2021/03/14 13:44:08;;;;;;;;;;;10.60;60.80;;;;;;5096615;28;19970;-77
2021/03/14 13:46:34;;;;;;;;;;;10.60;60.30;;;;;;5095402;28;20272;-76
2021/03/14 13:49:01;;;;;;;;;;;10.60;60.30;;;;;;5095417;28;19928;-76
2021/03/14 13:51:28;;;;;;;;;;;10.50;59.50;;;;;;5095392;28;19927;-76
2021/03/14 13:53:54;;;;;;;;;;;10.40;59.50;;;;;;5095752;28;19920;-75
2021/03/14 13:56:21;;;;;;;;;;;10.30;60.00;;;;;;5095522;28;20284;-75
2021/03/14 13:58:48;;;;;;;;;;;10.20;60.40;;;;;;5094914;28;19920;-76
2021/03/14 14:01:16;;;;;;;;;;;10.20;60.90;;;;;;5095042;28;19920;-76
2021/03/14 14:03:42;;;;;;;;;;;10.20;61.10;;;;;;5095637;28;19924;-76
2021/03/14 14:06:09;;;;;;;;;;;10.20;61.40;;;;;;5092835;28;19924;-76
2021/03/14 14:08:35;;;;;;;;;;;10.20;61.00;;;;;;5094896;28;20003;-76
2021/03/14 14:11:01;;;;;;;;;;;10.10;61.40;;;;;;5093340;28;19973;-76
2021/03/14 14:13:28;;;;;;;;;;;10.00;61.70;;;;;;5095410;28;19932;-76
2021/03/14 14:15:56;;;;;;;;;;;9.90;63.90;;;;;;5094636;28;19920;-76
2021/03/14 14:18:22;;;;;;;;;;;9.70;64.50;;;;;;5094853;28;20405;-77
2021/03/14 14:20:49;;;;;;;;;;;9.60;65.70;;;;;;5094956;28;20029;-77
2021/03/14 14:23:15;;;;;;;;;;;9.40;67.20;;;;;;5095499;28;19920;-76
2021/03/14 14:25:42;;;;;;;;;;;9.40;67.20;;;;;;5094664;28;19924;-76
2021/03/14 14:28:08;;;;;;;;;;;9.30;68.10;;;;;;5094467;28;20045;-76
2021/03/14 14:30:35;;;;;;;;;;;9.30;69.60;;;;;;5094147;28;19924;-76
2021/03/14 14:33:04;;;;;;;;;;;9.20;70.20;;;;;;5093825;28;20276;-76
2021/03/14 14:35:31;;;;;;;;;;;9.20;70.20;;;;;;5094337;28;19920;-76
2021/03/14 14:37:57;;;;;;;;;;;9.20;70.30;;;;;;5095237;28;19939;-76
2021/03/14 14:40:24;;;;;;;;;;;9.10;70.40;;;;;;5115087;28;19970;-76
2021/03/14 14:42:50;;;;;;;;;;;9.10;70.90;;;;;;5106269;28;19920;-77
2021/03/14 14:45:17;;;;;;;;;;;9.10;70.80;;;;;;5105672;28;19920;-76
2021/03/14 14:47:44;;;;;;;;;;;9.10;70.50;;;;;;5093738;28;19931;-76